Aviation Digital Data Service (ADDS)

Output produced by METARs form (1335 UTC 21 August 2019)
found at http://www.aviationweather.gov/metar/data/
 
METAR text: OPPS 211330Z 05008KT 7000 HZ FEW045 FEW110 32/21 Q1002
Conditions at: OPPS (PESHAWAR (CIV/MI, PK) observed 1330 UTC 21 August 2019
Temperature: 32.0°C (90°F)
Dewpoint: 21.0°C (70°F) [RH = 52%]
Pressure (altimeter): 29.59 inches Hg (1002.0 mb)
Winds: from the NE (50 degrees) at 9 MPH (8 knots; 4.1 m/s)
Visibility: 4 miles ( 7 km)
Ceiling: at least 12,000 feet AGL
Clouds: few clouds at 4500 feet AGL
few clouds at 11000 feet AGL
Weather: HZ  (haze)

METAR text: OPPS 211300Z 05008KT 7000 HZ FEW045 FEW110 32/21 Q1002
Conditions at: OPPS (PESHAWAR (CIV/MI, PK) observed 1300 UTC 21 August 2019
Temperature: 32.0°C (90°F)
Dewpoint: 21.0°C (70°F) [RH = 52%]
Pressure (altimeter): 29.59 inches Hg (1002.0 mb)
Winds: from the NE (50 degrees) at 9 MPH (8 knots; 4.1 m/s)
Visibility: 4 miles ( 7 km)
Ceiling: at least 12,000 feet AGL
Clouds: few clouds at 4500 feet AGL
few clouds at 11000 feet AGL
Weather: HZ  (haze)

METAR text: OPPS 211230Z 05008KT 7000 HZ FEW045 34/22 Q1002
Conditions at: OPPS (PESHAWAR (CIV/MI, PK) observed 1230 UTC 21 August 2019
Temperature: 34.0°C (93°F)
Dewpoint: 22.0°C (72°F) [RH = 50%]
Pressure (altimeter): 29.59 inches Hg (1002.0 mb)
Winds: from the NE (50 degrees) at 9 MPH (8 knots; 4.1 m/s)
Visibility: 4 miles ( 7 km)
Ceiling: at least 12,000 feet AGL
Clouds: few clouds at 4500 feet AGL
Weather: HZ  (haze)

METAR text: OPPS 211200Z 05008KT 7000 HZ FEW045 34/22 Q1002
Conditions at: OPPS (PESHAWAR (CIV/MI, PK) observed 1200 UTC 21 August 2019
Temperature: 34.0°C (93°F)
Dewpoint: 22.0°C (72°F) [RH = 50%]
Pressure (altimeter): 29.59 inches Hg (1002.0 mb)
Winds: from the NE (50 degrees) at 9 MPH (8 knots; 4.1 m/s)
Visibility: 4 miles ( 7 km)
Ceiling: at least 12,000 feet AGL
Clouds: few clouds at 4500 feet AGL
Weather: HZ  (haze)

METAR text: OPPS 211130Z 36006KT 7000 HZ FEW045 36/22 Q1002
Conditions at: OPPS (PESHAWAR (CIV/MI, PK) observed 1130 UTC 21 August 2019
Temperature: 36.0°C (97°F)
Dewpoint: 22.0°C (72°F) [RH = 45%]
Pressure (altimeter): 29.59 inches Hg (1002.0 mb)
Winds: from the N (360 degrees) at 7 MPH (6 knots; 3.1 m/s)
Visibility: 4 miles ( 7 km)
Ceiling: at least 12,000 feet AGL
Clouds: few clouds at 4500 feet AGL
Weather: HZ  (haze)

METAR text: OPPS 211100Z 36010KT 7000 HZ FEW040 35/22 Q1003
Conditions at: OPPS (PESHAWAR (CIV/MI, PK) observed 1100 UTC 21 August 2019
Temperature: 35.0°C (95°F)
Dewpoint: 22.0°C (72°F) [RH = 47%]
Pressure (altimeter): 29.62 inches Hg (1003.0 mb)
Winds: from the N (360 degrees) at 12 MPH (10 knots; 5.1 m/s)
Visibility: 4 miles ( 7 km)
Ceiling: at least 12,000 feet AGL
Clouds: few clouds at 4000 feet AGL
Weather: HZ  (haze)

METAR text: OPPS 211030Z 36010KT 7000 HZ FEW040 35/22 Q1003
Conditions at: OPPS (PESHAWAR (CIV/MI, PK) observed 1030 UTC 21 August 2019
Temperature: 35.0°C (95°F)
Dewpoint: 22.0°C (72°F) [RH = 47%]
Pressure (altimeter): 29.62 inches Hg (1003.0 mb)
Winds: from the N (360 degrees) at 12 MPH (10 knots; 5.1 m/s)
Visibility: 4 miles ( 7 km)
Ceiling: at least 12,000 feet AGL
Clouds: few clouds at 4000 feet AGL
Weather: HZ  (haze)

METAR text: OPPS 211000Z 36010KT 7000 HZ FEW040 35/22 Q1003
Conditions at: OPPS (PESHAWAR (CIV/MI, PK) observed 1000 UTC 21 August 2019
Temperature: 35.0°C (95°F)
Dewpoint: 22.0°C (72°F) [RH = 47%]
Pressure (altimeter): 29.62 inches Hg (1003.0 mb)
Winds: from the N (360 degrees) at 12 MPH (10 knots; 5.1 m/s)
Visibility: 4 miles ( 7 km)
Ceiling: at least 12,000 feet AGL
Clouds: few clouds at 4000 feet AGL
Weather: HZ  (haze)

METAR text: OPPS 210930Z 36010KT 7000 HZ FEW040 35/22 Q1003
Conditions at: OPPS (PESHAWAR (CIV/MI, PK) observed 0930 UTC 21 August 2019
Temperature: 35.0°C (95°F)
Dewpoint: 22.0°C (72°F) [RH = 47%]
Pressure (altimeter): 29.62 inches Hg (1003.0 mb)
Winds: from the N (360 degrees) at 12 MPH (10 knots; 5.1 m/s)
Visibility: 4 miles ( 7 km)
Ceiling: at least 12,000 feet AGL
Clouds: few clouds at 4000 feet AGL
Weather: HZ  (haze)

METAR text: OPPS 210900Z 36010KT 7000 HZ FEW040 35/22 Q1003
Conditions at: OPPS (PESHAWAR (CIV/MI, PK) observed 0900 UTC 21 August 2019
Temperature: 35.0°C (95°F)
Dewpoint: 22.0°C (72°F) [RH = 47%]
Pressure (altimeter): 29.62 inches Hg (1003.0 mb)
Winds: from the N (360 degrees) at 12 MPH (10 knots; 5.1 m/s)
Visibility: 4 miles ( 7 km)
Ceiling: at least 12,000 feet AGL
Clouds: few clouds at 4000 feet AGL
Weather: HZ  (haze)

METAR text: OPPS 210830Z 05004KT 7000 HZ FEW040 34/20 Q1004
Conditions at: OPPS (PESHAWAR (CIV/MI, PK) observed 0830 UTC 21 August 2019
Temperature: 34.0°C (93°F)
Dewpoint: 20.0°C (68°F) [RH = 44%]
Pressure (altimeter): 29.65 inches Hg (1004.0 mb)
Winds: from the NE (50 degrees) at 5 MPH (4 knots; 2.1 m/s)
Visibility: 4 miles ( 7 km)
Ceiling: at least 12,000 feet AGL
Clouds: few clouds at 4000 feet AGL
Weather: HZ  (haze)

METAR text: OPPS 210800Z 05004KT 7000 HZ FEW040 34/20 Q1004
Conditions at: OPPS (PESHAWAR (CIV/MI, PK) observed 0800 UTC 21 August 2019
Temperature: 34.0°C (93°F)
Dewpoint: 20.0°C (68°F) [RH = 44%]
Pressure (altimeter): 29.65 inches Hg (1004.0 mb)
Winds: from the NE (50 degrees) at 5 MPH (4 knots; 2.1 m/s)
Visibility: 4 miles ( 7 km)
Ceiling: at least 12,000 feet AGL
Clouds: few clouds at 4000 feet AGL
Weather: HZ  (haze)

METAR text: OPPS 210700Z 36004KT CAVOK 34/20 Q1005
Conditions at: OPPS (PESHAWAR (CIV/MI, PK) observed 0700 UTC 21 August 2019
Temperature: 34.0°C (93°F)
Dewpoint: 20.0°C (68°F) [RH = 44%]
Pressure (altimeter): 29.68 inches Hg (1005.0 mb)
Winds: from the N (360 degrees) at 5 MPH (4 knots; 2.1 m/s)
Visibility: 6 or more miles (10+ km)
Ceiling: ceiling and visibility are OK
Clouds: unknown
Weather: no significant weather observed at this time

METAR text: OPPS 210630Z 05006KT CAVOK SKC 33/20 Q1005
Conditions at: OPPS (PESHAWAR (CIV/MI, PK) observed 0630 UTC 21 August 2019
Temperature: 33.0°C (91°F)
Dewpoint: 20.0°C (68°F) [RH = 46%]
Pressure (altimeter): 29.68 inches Hg (1005.0 mb)
Winds: from the NE (50 degrees) at 7 MPH (6 knots; 3.1 m/s)
Visibility: 6 or more miles (10+ km)
Ceiling: at least 12,000 feet AGL
Clouds: clear skies
Weather: no significant weather observed at this time

METAR text: OPPS 210600Z 05006KT CAVOK SKC 32/20 Q1005
Conditions at: OPPS (PESHAWAR (CIV/MI, PK) observed 0600 UTC 21 August 2019
Temperature: 32.0°C (90°F)
Dewpoint: 20.0°C (68°F) [RH = 49%]
Pressure (altimeter): 29.68 inches Hg (1005.0 mb)
Winds: from the NE (50 degrees) at 7 MPH (6 knots; 3.1 m/s)
Visibility: 6 or more miles (10+ km)
Ceiling: at least 12,000 feet AGL
Clouds: clear skies
Weather: no significant weather observed at this time

METAR text: OPPS 210530Z 31006KT 7000 HZ 32/22 Q1005
Conditions at: OPPS (PESHAWAR (CIV/MI, PK) observed 0530 UTC 21 August 2019
Temperature: 32.0°C (90°F)
Dewpoint: 22.0°C (72°F) [RH = 56%]
Pressure (altimeter): 29.68 inches Hg (1005.0 mb)
Winds: from the NW (310 degrees) at 7 MPH (6 knots; 3.1 m/s)
Visibility: 4 miles ( 7 km)
Ceiling: unknown
Clouds: missing
Weather: HZ  (haze)

METAR text: OPPS 210500Z 31006KT 7000 HZ 31/21 Q1005
Conditions at: OPPS (PESHAWAR (CIV/MI, PK) observed 0500 UTC 21 August 2019
Temperature: 31.0°C (88°F)
Dewpoint: 21.0°C (70°F) [RH = 55%]
Pressure (altimeter): 29.68 inches Hg (1005.0 mb)
Winds: from the NW (310 degrees) at 7 MPH (6 knots; 3.1 m/s)
Visibility: 4 miles ( 7 km)
Ceiling: unknown
Clouds: missing
Weather: HZ  (haze)

METAR text: OPPS 210430Z 31004KT 7000 HZ 30/22 Q1005
Conditions at: OPPS (PESHAWAR (CIV/MI, PK) observed 0430 UTC 21 August 2019
Temperature: 30.0°C (86°F)
Dewpoint: 22.0°C (72°F) [RH = 62%]
Pressure (altimeter): 29.68 inches Hg (1005.0 mb)
Winds: from the NW (310 degrees) at 5 MPH (4 knots; 2.1 m/s)
Visibility: 4 miles ( 7 km)
Ceiling: unknown
Clouds: missing
Weather: HZ  (haze)

METAR text: OPPS 210400Z 31004KT 7000 HZ 29/22 Q1005
Conditions at: OPPS (PESHAWAR (CIV/MI, PK) observed 0400 UTC 21 August 2019
Temperature: 29.0°C (84°F)
Dewpoint: 22.0°C (72°F) [RH = 66%]
Pressure (altimeter): 29.68 inches Hg (1005.0 mb)
Winds: from the NW (310 degrees) at 5 MPH (4 knots; 2.1 m/s)
Visibility: 4 miles ( 7 km)
Ceiling: unknown
Clouds: missing
Weather: HZ  (haze)

METAR text: OPPS 210330Z 31004KT 7000 HZ 29/21 Q1005
Conditions at: OPPS (PESHAWAR (CIV/MI, PK) observed 0330 UTC 21 August 2019
Temperature: 29.0°C (84°F)
Dewpoint: 21.0°C (70°F) [RH = 62%]
Pressure (altimeter): 29.68 inches Hg (1005.0 mb)
Winds: from the NW (310 degrees) at 5 MPH (4 knots; 2.1 m/s)
Visibility: 4 miles ( 7 km)
Ceiling: unknown
Clouds: missing
Weather: HZ  (haze)

METAR text: OPPS 210300Z 31004KT 7000 HZ 27/21 Q1005
Conditions at: OPPS (PESHAWAR (CIV/MI, PK) observed 0300 UTC 21 August 2019
Temperature: 27.0°C (81°F)
Dewpoint: 21.0°C (70°F) [RH = 70%]
Pressure (altimeter): 29.68 inches Hg (1005.0 mb)
Winds: from the NW (310 degrees) at 5 MPH (4 knots; 2.1 m/s)
Visibility: 4 miles ( 7 km)
Ceiling: unknown
Clouds: missing
Weather: HZ  (haze)

METAR text: OPPS 210230Z 31004KT 7000 HZ 25/20 Q1004
Conditions at: OPPS (PESHAWAR (CIV/MI, PK) observed 0230 UTC 21 August 2019
Temperature: 25.0°C (77°F)
Dewpoint: 20.0°C (68°F) [RH = 74%]
Pressure (altimeter): 29.65 inches Hg (1004.0 mb)
Winds: from the NW (310 degrees) at 5 MPH (4 knots; 2.1 m/s)
Visibility: 4 miles ( 7 km)
Ceiling: unknown
Clouds: missing
Weather: HZ  (haze)

METAR text: OPPS 210200Z 31004KT 7000 HZ 25/20 Q1004
Conditions at: OPPS (PESHAWAR (CIV/MI, PK) observed 0200 UTC 21 August 2019
Temperature: 25.0°C (77°F)
Dewpoint: 20.0°C (68°F) [RH = 74%]
Pressure (altimeter): 29.65 inches Hg (1004.0 mb)
Winds: from the NW (310 degrees) at 5 MPH (4 knots; 2.1 m/s)
Visibility: 4 miles ( 7 km)
Ceiling: unknown
Clouds: missing
Weather: HZ  (haze)

METAR text: OPPS 210130Z 31004KT 5000 HZ 24/19 Q1004
Conditions at: OPPS (PESHAWAR (CIV/MI, PK) observed 0130 UTC 21 August 2019
Temperature: 24.0°C (75°F)
Dewpoint: 19.0°C (66°F) [RH = 74%]
Pressure (altimeter): 29.65 inches Hg (1004.0 mb)
Winds: from the NW (310 degrees) at 5 MPH (4 knots; 2.1 m/s)
Visibility: 3 miles ( 5 km)
Ceiling: unknown
Clouds: missing
Weather: HZ  (haze)

METAR text: OPPS 210100Z 31004KT 5000 HZ 24/19 Q1004
Conditions at: OPPS (PESHAWAR (CIV/MI, PK) observed 0100 UTC 21 August 2019
Temperature: 24.0°C (75°F)
Dewpoint: 19.0°C (66°F) [RH = 74%]
Pressure (altimeter): 29.65 inches Hg (1004.0 mb)
Winds: from the NW (310 degrees) at 5 MPH (4 knots; 2.1 m/s)
Visibility: 3 miles ( 5 km)
Ceiling: unknown
Clouds: missing
Weather: HZ  (haze)

METAR text: OPPS 210000Z 00000KT 6000 HZ 24/19 Q1003
Conditions at: OPPS (PESHAWAR (CIV/MI, PK) observed 0000 UTC 21 August 2019
Temperature: 24.0°C (75°F)
Dewpoint: 19.0°C (66°F) [RH = 74%]
Pressure (altimeter): 29.62 inches Hg (1003.0 mb)
Winds: calm
Visibility: 4 miles ( 6 km)
Ceiling: unknown
Clouds: missing
Weather: HZ  (haze)

METAR text: OPPS 202300Z 00000KT 6000 HZ FEW110 26/18 Q1003
Conditions at: OPPS (PESHAWAR (CIV/MI, PK) observed 2300 UTC 20 August 2019
Temperature: 26.0°C (79°F)
Dewpoint: 18.0°C (64°F) [RH = 61%]
Pressure (altimeter): 29.62 inches Hg (1003.0 mb)
Winds: calm
Visibility: 4 miles ( 6 km)
Ceiling: at least 12,000 feet AGL
Clouds: few clouds at 11000 feet AGL
Weather: HZ  (haze)

METAR text: OPPS 202200Z 00000KT 6000 HZ FEW110 26/18 Q1003
Conditions at: OPPS (PESHAWAR (CIV/MI, PK) observed 2200 UTC 20 August 2019
Temperature: 26.0°C (79°F)
Dewpoint: 18.0°C (64°F) [RH = 61%]
Pressure (altimeter): 29.62 inches Hg (1003.0 mb)
Winds: calm
Visibility: 4 miles ( 6 km)
Ceiling: at least 12,000 feet AGL
Clouds: few clouds at 11000 feet AGL
Weather: HZ  (haze)

METAR text: OPPS 202100Z 00000KT 6000 HZ FEW110 26/18 Q1003
Conditions at: OPPS (PESHAWAR (CIV/MI, PK) observed 2100 UTC 20 August 2019
Temperature: 26.0°C (79°F)
Dewpoint: 18.0°C (64°F) [RH = 61%]
Pressure (altimeter): 29.62 inches Hg (1003.0 mb)
Winds: calm
Visibility: 4 miles ( 6 km)
Ceiling: at least 12,000 feet AGL
Clouds: few clouds at 11000 feet AGL
Weather: HZ  (haze)

METAR text: OPPS 202000Z 05006KT 7000 HZ FEW045 29/17 Q1004
Conditions at: OPPS (PESHAWAR (CIV/MI, PK) observed 2000 UTC 20 August 2019
Temperature: 29.0°C (84°F)
Dewpoint: 17.0°C (63°F) [RH = 48%]
Pressure (altimeter): 29.65 inches Hg (1004.0 mb)
Winds: from the NE (50 degrees) at 7 MPH (6 knots; 3.1 m/s)
Visibility: 4 miles ( 7 km)
Ceiling: at least 12,000 feet AGL
Clouds: few clouds at 4500 feet AGL
Weather: HZ  (haze)

METAR text: OPPS 201900Z 05006KT 7000 HZ FEW045 29/17 Q1004
Conditions at: OPPS (PESHAWAR (CIV/MI, PK) observed 1900 UTC 20 August 2019
Temperature: 29.0°C (84°F)
Dewpoint: 17.0°C (63°F) [RH = 48%]
Pressure (altimeter): 29.65 inches Hg (1004.0 mb)
Winds: from the NE (50 degrees) at 7 MPH (6 knots; 3.1 m/s)
Visibility: 4 miles ( 7 km)
Ceiling: at least 12,000 feet AGL
Clouds: few clouds at 4500 feet AGL
Weather: HZ  (haze)

METAR text: OPPS 201800Z 05006KT 7000 HZ FEW045 29/17 Q1004
Conditions at: OPPS (PESHAWAR (CIV/MI, PK) observed 1800 UTC 20 August 2019
Temperature: 29.0°C (84°F)
Dewpoint: 17.0°C (63°F) [RH = 48%]
Pressure (altimeter): 29.65 inches Hg (1004.0 mb)
Winds: from the NE (50 degrees) at 7 MPH (6 knots; 3.1 m/s)
Visibility: 4 miles ( 7 km)
Ceiling: at least 12,000 feet AGL
Clouds: few clouds at 4500 feet AGL
Weather: HZ  (haze)

METAR text: OPPS 201700Z 05006KT 7000 HZ FEW045 29/17 Q1004
Conditions at: OPPS (PESHAWAR (CIV/MI, PK) observed 1700 UTC 20 August 2019
Temperature: 29.0°C (84°F)
Dewpoint: 17.0°C (63°F) [RH = 48%]
Pressure (altimeter): 29.65 inches Hg (1004.0 mb)
Winds: from the NE (50 degrees) at 7 MPH (6 knots; 3.1 m/s)
Visibility: 4 miles ( 7 km)
Ceiling: at least 12,000 feet AGL
Clouds: few clouds at 4500 feet AGL
Weather: HZ  (haze)

METAR text: OPPS 201600Z 05006KT 7000 HZ FEW045 32/17 Q1004
Conditions at: OPPS (PESHAWAR (CIV/MI, PK) observed 1600 UTC 20 August 2019
Temperature: 32.0°C (90°F)
Dewpoint: 17.0°C (63°F) [RH = 41%]
Pressure (altimeter): 29.65 inches Hg (1004.0 mb)
Winds: from the NE (50 degrees) at 7 MPH (6 knots; 3.1 m/s)
Visibility: 4 miles ( 7 km)
Ceiling: at least 12,000 feet AGL
Clouds: few clouds at 4500 feet AGL
Weather: HZ  (haze)

METAR text: OPPS 201500Z 05006KT 7000 HZ FEW045 32/17 Q1004
Conditions at: OPPS (PESHAWAR (CIV/MI, PK) observed 1500 UTC 20 August 2019
Temperature: 32.0°C (90°F)
Dewpoint: 17.0°C (63°F) [RH = 41%]
Pressure (altimeter): 29.65 inches Hg (1004.0 mb)
Winds: from the NE (50 degrees) at 7 MPH (6 knots; 3.1 m/s)
Visibility: 4 miles ( 7 km)
Ceiling: at least 12,000 feet AGL
Clouds: few clouds at 4500 feet AGL
Weather: HZ  (haze)

METAR text: OPPS 201400Z 05006KT 7000 HZ FEW045 32/17 Q1004
Conditions at: OPPS (PESHAWAR (CIV/MI, PK) observed 1400 UTC 20 August 2019
Temperature: 32.0°C (90°F)
Dewpoint: 17.0°C (63°F) [RH = 41%]
Pressure (altimeter): 29.65 inches Hg (1004.0 mb)
Winds: from the NE (50 degrees) at 7 MPH (6 knots; 3.1 m/s)
Visibility: 4 miles ( 7 km)
Ceiling: at least 12,000 feet AGL
Clouds: few clouds at 4500 feet AGL
Weather: HZ  (haze)

METAR text: OPPS 201300Z 05006KT 9999 FEW045 33/18 Q1003
Conditions at: OPPS (PESHAWAR (CIV/MI, PK) observed 1300 UTC 20 August 2019
Temperature: 33.0°C (91°F)
Dewpoint: 18.0°C (64°F) [RH = 41%]
Pressure (altimeter): 29.62 inches Hg (1003.0 mb)
Winds: from the NE (50 degrees) at 7 MPH (6 knots; 3.1 m/s)
Visibility: 6 or more miles (10+ km)
Ceiling: at least 12,000 feet AGL
Clouds: few clouds at 4500 feet AGL
Weather: no significant weather observed at this time

METAR text: OPPS 201200Z 05006KT 9999 FEW045 35/17 Q1004
Conditions at: OPPS (PESHAWAR (CIV/MI, PK) observed 1200 UTC 20 August 2019
Temperature: 35.0°C (95°F)
Dewpoint: 17.0°C (63°F) [RH = 34%]
Pressure (altimeter): 29.65 inches Hg (1004.0 mb)
Winds: from the NE (50 degrees) at 7 MPH (6 knots; 3.1 m/s)
Visibility: 6 or more miles (10+ km)
Ceiling: at least 12,000 feet AGL
Clouds: few clouds at 4500 feet AGL
Weather: no significant weather observed at this time

METAR text: OPPS 201130Z 09006KT 9999 FEW045 FEW110 35/22 Q1004
Conditions at: OPPS (PESHAWAR (CIV/MI, PK) observed 1130 UTC 20 August 2019
Temperature: 35.0°C (95°F)
Dewpoint: 22.0°C (72°F) [RH = 47%]
Pressure (altimeter): 29.65 inches Hg (1004.0 mb)
Winds: from the E (90 degrees) at 7 MPH (6 knots; 3.1 m/s)
Visibility: 6 or more miles (10+ km)
Ceiling: at least 12,000 feet AGL
Clouds: few clouds at 4500 feet AGL
few clouds at 11000 feet AGL
Weather: no significant weather observed at this time

METAR text: OPPS 201100Z 09006KT 9999 FEW045 FEW110 35/22 Q1004
Conditions at: OPPS (PESHAWAR (CIV/MI, PK) observed 1100 UTC 20 August 2019
Temperature: 35.0°C (95°F)
Dewpoint: 22.0°C (72°F) [RH = 47%]
Pressure (altimeter): 29.65 inches Hg (1004.0 mb)
Winds: from the E (90 degrees) at 7 MPH (6 knots; 3.1 m/s)
Visibility: 6 or more miles (10+ km)
Ceiling: at least 12,000 feet AGL
Clouds: few clouds at 4500 feet AGL
few clouds at 11000 feet AGL
Weather: no significant weather observed at this time

METAR text: OPPS 201000Z 05006KT 9999 FEW045 36/21 Q1005
Conditions at: OPPS (PESHAWAR (CIV/MI, PK) observed 1000 UTC 20 August 2019
Temperature: 36.0°C (97°F)
Dewpoint: 21.0°C (70°F) [RH = 42%]
Pressure (altimeter): 29.68 inches Hg (1005.0 mb)
Winds: from the NE (50 degrees) at 7 MPH (6 knots; 3.1 m/s)
Visibility: 6 or more miles (10+ km)
Ceiling: at least 12,000 feet AGL
Clouds: few clouds at 4500 feet AGL
Weather: no significant weather observed at this time

METAR text: OPPS 200930Z 13006KT 7000 HZ FEW045 34/21 Q1006
Conditions at: OPPS (PESHAWAR (CIV/MI, PK) observed 0930 UTC 20 August 2019
Temperature: 34.0°C (93°F)
Dewpoint: 21.0°C (70°F) [RH = 47%]
Pressure (altimeter): 29.70 inches Hg (1006.0 mb)
Winds: from the SE (130 degrees) at 7 MPH (6 knots; 3.1 m/s)
Visibility: 4 miles ( 7 km)
Ceiling: at least 12,000 feet AGL
Clouds: few clouds at 4500 feet AGL
Weather: HZ  (haze)

METAR text: OPPS 200900Z 13006KT 7000 HZ FEW045 34/21 Q1006
Conditions at: OPPS (PESHAWAR (CIV/MI, PK) observed 0900 UTC 20 August 2019
Temperature: 34.0°C (93°F)
Dewpoint: 21.0°C (70°F) [RH = 47%]
Pressure (altimeter): 29.70 inches Hg (1006.0 mb)
Winds: from the SE (130 degrees) at 7 MPH (6 knots; 3.1 m/s)
Visibility: 4 miles ( 7 km)
Ceiling: at least 12,000 feet AGL
Clouds: few clouds at 4500 feet AGL
Weather: HZ  (haze)

METAR text: OPPS 200830Z 13006KT 7000 HZ FEW045 FEW110 34/21 Q1007
Conditions at: OPPS (PESHAWAR (CIV/MI, PK) observed 0830 UTC 20 August 2019
Temperature: 34.0°C (93°F)
Dewpoint: 21.0°C (70°F) [RH = 47%]
Pressure (altimeter): 29.73 inches Hg (1007.0 mb)
Winds: from the SE (130 degrees) at 7 MPH (6 knots; 3.1 m/s)
Visibility: 4 miles ( 7 km)
Ceiling: at least 12,000 feet AGL
Clouds: few clouds at 4500 feet AGL
few clouds at 11000 feet AGL
Weather: HZ  (haze)

METAR text: OPPS 200800Z 13006KT 7000 HZ FEW045 FEW110 34/21 Q1007
Conditions at: OPPS (PESHAWAR (CIV/MI, PK) observed 0800 UTC 20 August 2019
Temperature: 34.0°C (93°F)
Dewpoint: 21.0°C (70°F) [RH = 47%]
Pressure (altimeter): 29.73 inches Hg (1007.0 mb)
Winds: from the SE (130 degrees) at 7 MPH (6 knots; 3.1 m/s)
Visibility: 4 miles ( 7 km)
Ceiling: at least 12,000 feet AGL
Clouds: few clouds at 4500 feet AGL
few clouds at 11000 feet AGL
Weather: HZ  (haze)

METAR text: OPPS 200700Z 13006KT 7000 HZ FEW045 FEW110 34/21 Q1008
Conditions at: OPPS (PESHAWAR (CIV/MI, PK) observed 0700 UTC 20 August 2019
Temperature: 34.0°C (93°F)
Dewpoint: 21.0°C (70°F) [RH = 47%]
Pressure (altimeter): 29.76 inches Hg (1008.0 mb)
Winds: from the SE (130 degrees) at 7 MPH (6 knots; 3.1 m/s)
Visibility: 4 miles ( 7 km)
Ceiling: at least 12,000 feet AGL
Clouds: few clouds at 4500 feet AGL
few clouds at 11000 feet AGL
Weather: HZ  (haze)

METAR text: OPPS 200630Z 13006KT 7000 HZ FEW045 FEW110 32/22 Q1008
Conditions at: OPPS (PESHAWAR (CIV/MI, PK) observed 0630 UTC 20 August 2019
Temperature: 32.0°C (90°F)
Dewpoint: 22.0°C (72°F) [RH = 56%]
Pressure (altimeter): 29.76 inches Hg (1008.0 mb)
Winds: from the SE (130 degrees) at 7 MPH (6 knots; 3.1 m/s)
Visibility: 4 miles ( 7 km)
Ceiling: at least 12,000 feet AGL
Clouds: few clouds at 4500 feet AGL
few clouds at 11000 feet AGL
Weather: HZ  (haze)

METAR text: OPPS 200600Z 13006KT 7000 HZ FEW045 FEW110 32/22 Q1008
Conditions at: OPPS (PESHAWAR (CIV/MI, PK) observed 0600 UTC 20 August 2019
Temperature: 32.0°C (90°F)
Dewpoint: 22.0°C (72°F) [RH = 56%]
Pressure (altimeter): 29.76 inches Hg (1008.0 mb)
Winds: from the SE (130 degrees) at 7 MPH (6 knots; 3.1 m/s)
Visibility: 4 miles ( 7 km)
Ceiling: at least 12,000 feet AGL
Clouds: few clouds at 4500 feet AGL
few clouds at 11000 feet AGL
Weather: HZ  (haze)

METAR text: OPPS 200530Z 05006KT 7000 HZ FEW045 FEW110 31/22 Q1008
Conditions at: OPPS (PESHAWAR (CIV/MI, PK) observed 0530 UTC 20 August 2019
Temperature: 31.0°C (88°F)
Dewpoint: 22.0°C (72°F) [RH = 59%]
Pressure (altimeter): 29.76 inches Hg (1008.0 mb)
Winds: from the NE (50 degrees) at 7 MPH (6 knots; 3.1 m/s)
Visibility: 4 miles ( 7 km)
Ceiling: at least 12,000 feet AGL
Clouds: few clouds at 4500 feet AGL
few clouds at 11000 feet AGL
Weather: HZ  (haze)

METAR text: OPPS 200500Z 05006KT 7000 HZ FEW045 FEW110 30/22 Q1009
Conditions at: OPPS (PESHAWAR (CIV/MI, PK) observed 0500 UTC 20 August 2019
Temperature: 30.0°C (86°F)
Dewpoint: 22.0°C (72°F) [RH = 62%]
Pressure (altimeter): 29.79 inches Hg (1009.0 mb)
Winds: from the NE (50 degrees) at 7 MPH (6 knots; 3.1 m/s)
Visibility: 4 miles ( 7 km)
Ceiling: at least 12,000 feet AGL
Clouds: few clouds at 4500 feet AGL
few clouds at 11000 feet AGL
Weather: HZ  (haze)

METAR text: OPPS 200430Z 00000KT 7000 HZ FEW045 FEW110 28/21 Q1008
Conditions at: OPPS (PESHAWAR (CIV/MI, PK) observed 0430 UTC 20 August 2019
Temperature: 28.0°C (82°F)
Dewpoint: 21.0°C (70°F) [RH = 66%]
Pressure (altimeter): 29.76 inches Hg (1008.0 mb)
Winds: calm
Visibility: 4 miles ( 7 km)
Ceiling: at least 12,000 feet AGL
Clouds: few clouds at 4500 feet AGL
few clouds at 11000 feet AGL
Weather: HZ  (haze)

METAR text: OPPS 200400Z 00000KT 7000 HZ FEW045 FEW110 28/21 Q1008
Conditions at: OPPS (PESHAWAR (CIV/MI, PK) observed 0400 UTC 20 August 2019
Temperature: 28.0°C (82°F)
Dewpoint: 21.0°C (70°F) [RH = 66%]
Pressure (altimeter): 29.76 inches Hg (1008.0 mb)
Winds: calm
Visibility: 4 miles ( 7 km)
Ceiling: at least 12,000 feet AGL
Clouds: few clouds at 4500 feet AGL
few clouds at 11000 feet AGL
Weather: HZ  (haze)

METAR text: OPPS 200330Z 00000KT 7000 HZ FEW045 FEW110 24/21 Q1008
Conditions at: OPPS (PESHAWAR (CIV/MI, PK) observed 0330 UTC 20 August 2019
Temperature: 24.0°C (75°F)
Dewpoint: 21.0°C (70°F) [RH = 83%]
Pressure (altimeter): 29.76 inches Hg (1008.0 mb)
Winds: calm
Visibility: 4 miles ( 7 km)
Ceiling: at least 12,000 feet AGL
Clouds: few clouds at 4500 feet AGL
few clouds at 11000 feet AGL
Weather: HZ  (haze)

METAR text: OPPS 200300Z 00000KT 7000 HZ FEW045 FEW110 24/21 Q1008
Conditions at: OPPS (PESHAWAR (CIV/MI, PK) observed 0300 UTC 20 August 2019
Temperature: 24.0°C (75°F)
Dewpoint: 21.0°C (70°F) [RH = 83%]
Pressure (altimeter): 29.76 inches Hg (1008.0 mb)
Winds: calm
Visibility: 4 miles ( 7 km)
Ceiling: at least 12,000 feet AGL
Clouds: few clouds at 4500 feet AGL
few clouds at 11000 feet AGL
Weather: HZ  (haze)

METAR text: OPPS 200200Z 00000KT 5000 HZ FEW045 FEW110 24/21 Q1008
Conditions at: OPPS (PESHAWAR (CIV/MI, PK) observed 0200 UTC 20 August 2019
Temperature: 24.0°C (75°F)
Dewpoint: 21.0°C (70°F) [RH = 83%]
Pressure (altimeter): 29.76 inches Hg (1008.0 mb)
Winds: calm
Visibility: 3 miles ( 5 km)
Ceiling: at least 12,000 feet AGL
Clouds: few clouds at 4500 feet AGL
few clouds at 11000 feet AGL
Weather: HZ  (haze)

Forecast for: OPPS (PESHAWAR (CIV/MI, PK)
Text: TAF OPPS 211100Z 2112/2218 31015KT 5000 HZ FEW040 SCT100
Forecast period: 1200 UTC 21 August 2019 to 1800 UTC 22 August 2019
Forecast type: FROM: standard forecast or significant change
Winds: from the NW (310 degrees) at 17 MPH (15 knots; 7.7 m/s)
Visibility: 3 miles (5 km)
Ceiling: at least 12,000 feet AGL
Clouds: few clouds at 4000 feet AGL
scattered clouds at 10000 feet AGL
Weather: HZ  (haze)
Text: TEMPO 2109/2112 FEW030TCU
Forecast period: 0900 to 1200 UTC 21 August 2019
Forecast type: TEMPORARY: The following changes expected for less than half the time period
Visibility: missing
Ceiling: at least 12,000 feet AGL
Clouds: few clouds at 3000 feet AGL
Weather: no significant weather forecast for this period